Time;durP1;ratioP1;P1;durP2;ratioP2;P2;SDS_P1;SDS_P2;PMS_P1;PMS_P2;Temp;Humidity;BMP_temperature;BMP_pressure;BME280_temperature;BME280_humidity;BME280_pressure;Samples;Min_cycle;Max_cycle;Signal;HPM_P1;HPM_P2
2024/04/10 00:01:34;;;;;;;28.17;16.25;;;;;;;12.73;72.86;99891.09;5297818;26;20035;-69
2024/04/10 00:04:00;;;;;;;27.88;14.82;;;;;;;12.94;73.59;99916.88;5329487;26;20020;-71
2024/04/10 00:06:26;;;;;;;31.38;16.88;;;;;;;12.85;73.12;99914.44;5335986;26;20025;-70
2024/04/10 00:08:52;;;;;;;26.10;16.52;;;;;;;12.45;73.09;99857.66;5354415;26;20005;-70
2024/04/10 00:11:21;;;;;;;31.88;17.13;;;;;;;12.43;73.04;99859.41;5327993;26;20095;-70
2024/04/10 00:13:47;;;;;;;25.77;15.25;;;;;;;12.50;73.84;99874.06;5307759;26;20454;-69
2024/04/10 00:16:13;;;;;;;29.02;14.98;;;;;;;12.77;73.62;99921.50;5301257;26;20008;-72
2024/04/10 00:18:40;;;;;;;24.15;15.30;;;;;;;12.34;73.37;99871.69;5329351;26;21286;-70
2024/04/10 00:21:06;;;;;;;25.70;14.45;;;;;;;12.25;73.31;99876.19;5298449;26;20016;-71
2024/04/10 00:23:32;;;;;;;26.58;14.85;;;;;;;12.15;73.07;99868.50;5361857;26;20027;-71
2024/04/10 00:26:02;;;;;;;27.38;16.40;;;;;;;12.24;73.56;99895.34;5303017;26;20069;-69
2024/04/10 00:28:30;;;;;;;27.80;16.85;;;;;;;12.42;73.61;99922.94;5334005;26;20453;-71
2024/04/10 00:30:56;;;;;;;28.75;15.93;;;;;;;12.24;73.85;99901.44;5324891;26;20017;-71
2024/04/10 00:33:22;;;;;;;26.95;15.25;;;;;;;12.40;73.52;99927.31;5328280;26;20030;-69
2024/04/10 00:35:57;;;;;;;27.55;15.65;;;;;;;12.42;73.94;99934.22;5302862;26;20425;-71
2024/04/10 00:38:25;;;;;;;25.52;14.32;;;;;;;12.27;73.57;99924.84;5357126;26;20000;-70
2024/04/10 00:40:59;;;;;;;23.38;14.90;;;;;;;12.39;74.08;99943.84;5327951;26;20000;-70
2024/04/10 00:43:26;;;;;;;25.90;14.05;;;;;;;12.09;73.74;99909.44;5331077;26;20782;-71
2024/04/10 00:46:14;;;;;;;27.00;15.25;;;;;;;12.37;73.71;99959.50;5302247;26;20466;-70
2024/04/10 00:48:43;;;;;;;23.27;14.35;;;;;;;12.16;73.56;99937.19;5356621;26;20662;-70
2024/04/10 00:51:12;;;;;;;19.92;11.18;;;;;;;12.13;73.53;99940.72;5306690;26;20008;-70
2024/04/10 00:53:40;;;;;;;16.33;10.75;;;;;;;12.03;73.88;99933.88;5306327;26;20016;-70
2024/04/10 00:56:08;;;;;;;20.08;12.32;;;;;;;12.14;73.85;99971.09;5361614;26;20004;-71
2024/04/10 00:58:35;;;;;;;26.77;13.75;;;;;;;12.03;73.88;99957.34;5335169;26;20441;-72
2024/04/10 01:01:02;;;;;;;20.65;12.68;;;;;;;12.07;73.69;99972.09;5324107;26;20606;-71
2024/04/10 01:03:30;;;;;;;27.65;15.55;;;;;;;12.01;73.62;99962.59;5359736;26;20315;-70
2024/04/10 01:06:04;;;;;;;30.95;15.30;;;;;;;11.95;73.68;99946.97;5305417;26;20000;-70
2024/04/10 01:08:32;;;;;;;24.23;14.23;;;;;;;12.02;73.84;99969.53;5308654;26;20417;-69
2024/04/10 01:11:00;;;;;;;17.77;11.82;;;;;;;11.89;73.74;99960.09;5279921;26;20015;-72
2024/04/10 01:13:27;;;;;;;19.27;12.65;;;;;;;11.51;73.86;99906.66;5303745;26;20110;-70
2024/04/10 01:15:54;;;;;;;24.17;14.50;;;;;;;11.56;73.57;99916.13;5303053;26;20020;-69
2024/04/10 01:18:21;;;;;;;28.35;14.95;;;;;;;11.46;73.33;99914.53;5332401;26;20002;-70
2024/04/10 01:20:50;;;;;;;22.30;13.90;;;;;;;11.68;74.04;99961.22;5361365;26;20052;-71
2024/04/10 01:23:20;;;;;;;21.80;12.52;;;;;;;11.67;74.09;99964.69;5331861;26;20011;-71
2024/04/10 01:25:49;;;;;;;20.30;12.73;;;;;;;11.78;74.04;99986.28;5303217;26;22507;-71
2024/04/10 01:28:16;;;;;;;12.45;8.57;;;;;;;11.73;73.84;99994.16;5362982;26;20001;-70
2024/04/10 01:30:42;;;;;;;22.85;13.57;;;;;;;11.54;73.53;99985.66;5300700;26;20036;-70
2024/04/10 01:33:08;;;;;;;14.18;9.70;;;;;;;11.18;73.72;99953.88;5309694;26;21156;-72
2024/04/10 01:35:34;;;;;;;12.55;8.40;;;;;;;11.51;73.91;100008.28;5334749;26;20019;-71
2024/04/10 01:38:00;;;;;;;17.42;10.77;;;;;;;11.34;73.38;100000.59;5309268;26;20008;-71
2024/04/10 01:40:28;;;;;;;20.35;12.32;;;;;;;11.23;73.65;100008.53;5357984;26;20123;-71
2024/04/10 01:42:54;;;;;;;17.98;11.70;;;;;;;11.17;73.67;100004.22;5331850;26;21156;-71
2024/04/10 01:45:20;;;;;;;20.75;13.45;;;;;;;11.14;73.76;99994.69;5366175;26;20001;-72
2024/04/10 01:47:47;;;;;;;17.52;11.45;;;;;;;10.90;73.84;99969.72;5339206;26;20084;-71
2024/04/10 01:50:13;;;;;;;17.40;10.85;;;;;;;11.19;73.26;100027.66;5338519;26;20012;-72
2024/04/10 01:52:39;;;;;;;26.13;16.20;;;;;;;10.89;73.63;99996.63;5344072;26;20008;-70
2024/04/10 01:55:06;;;;;;;34.80;19.58;;;;;;;11.16;73.76;100036.34;5367516;26;20088;-71
2024/04/10 01:57:33;;;;;;;37.47;19.85;;;;;;;11.03;73.49;100022.56;5344692;26;20004;-71
2024/04/10 01:59:59;;;;;;;30.73;18.77;;;;;;;10.80;73.62;99989.75;5344335;26;20613;-72
2024/04/10 02:02:25;;;;;;;26.40;16.30;;;;;;;11.05;73.80;100044.25;5369299;26;20004;-71
2024/04/10 02:04:51;;;;;;;27.83;17.17;;;;;;;11.00;73.95;100038.19;5397872;26;20004;-72
2024/04/10 02:07:17;;;;;;;27.38;15.98;;;;;;;10.97;74.04;100031.28;5364935;26;20504;-73
2024/04/10 02:09:44;;;;;;;38.30;19.58;;;;;;;11.14;73.75;100051.13;5364979;26;20018;-72
2024/04/10 02:12:10;;;;;;;25.35;15.73;;;;;;;11.11;73.96;100045.94;5366310;26;20016;-71
2024/04/10 02:14:36;;;;;;;28.27;16.02;;;;;;;11.12;73.96;100061.56;5343182;26;20056;-71
2024/04/10 02:17:04;;;;;;;20.75;12.57;;;;;;;10.93;73.82;100042.59;5309884;26;20895;-70
2024/04/10 02:19:30;;;;;;;22.83;14.38;;;;;;;10.73;74.04;100011.47;5370712;26;20011;-69
2024/04/10 02:21:57;;;;;;;23.92;13.80;;;;;;;10.92;73.84;100051.28;5370449;26;20486;-70
2024/04/10 02:24:24;;;;;;;182.75;20.35;;;;;;;10.58;74.23;100008.97;5367294;26;20483;-70
2024/04/10 02:26:50;;;;;;;46.63;14.95;;;;;;;10.96;74.19;100073.81;5364746;26;20232;-70
2024/04/10 02:29:17;;;;;;;116.22;18.73;;;;;;;10.51;74.12;100003.78;5334713;26;20073;-71
2024/04/10 02:31:43;;;;;;;151.10;18.88;;;;;;;10.53;73.82;100027.22;5313774;26;20081;-70
2024/04/10 02:34:10;;;;;;;103.75;17.83;;;;;;;10.54;74.27;100026.34;5343098;26;20004;-70
2024/04/10 02:36:36;;;;;;;184.63;88.78;;;;;;;10.61;73.79;100059.25;5364750;26;20008;-70
2024/04/10 02:39:03;;;;;;;30.73;19.67;;;;;;;10.47;74.14;100016.81;5396051;26;20469;-72
2024/04/10 02:41:29;;;;;;;32.83;19.15;;;;;;;10.82;74.20;100070.41;5364355;26;20004;-72
2024/04/10 02:43:56;;;;;;;42.20;21.50;;;;;;;10.99;74.55;100084.22;5341037;26;20008;-72
2024/04/10 02:46:24;;;;;;;77.20;23.95;;;;;;;10.73;74.53;100028.84;5341697;26;20361;-71
2024/04/10 02:48:50;;;;;;;39.33;20.40;;;;;;;10.91;74.22;100059.09;5279349;26;20497;-70
2024/04/10 02:51:16;;;;;;;47.63;20.73;;;;;;;10.74;74.59;100035.78;5370519;26;20014;-71
2024/04/10 02:53:42;;;;;;;116.88;22.52;;;;;;;11.12;74.29;100091.94;5364131;26;20003;-72
2024/04/10 02:56:08;;;;;;;36.20;19.85;;;;;;;10.78;74.32;100038.34;5365598;26;20000;-71
2024/04/10 02:58:35;;;;;;;36.78;18.95;;;;;;;10.91;74.58;100059.09;5335817;26;20023;-71
2024/04/10 03:01:01;;;;;;;35.08;17.33;;;;;;;11.00;74.60;100079.88;5370677;26;20011;-71
2024/04/10 03:03:27;;;;;;;76.43;21.92;;;;;;;11.13;74.74;100091.06;5365989;26;20008;-71
2024/04/10 03:06:02;;;;;;;29.95;17.40;;;;;;;10.95;75.07;100059.06;5372215;26;20080;-70
2024/04/10 03:08:30;;;;;;;29.30;18.20;;;;;;;11.31;74.93;100100.50;5340850;26;20007;-69
2024/04/10 03:10:57;;;;;;;34.92;18.80;;;;;;;11.26;74.80;100068.41;5365304;26;20003;-70
2024/04/10 03:13:23;;;;;;;35.83;19.77;;;;;;;11.72;75.08;100125.38;5373423;26;20044;-70
2024/04/10 03:15:52;;;;;;;245.30;29.58;;;;;;;11.33;74.49;100041.44;5368147;26;20019;-73
2024/04/10 03:18:19;;;;;;;110.78;21.88;;;;;;;11.88;74.96;100139.16;5370104;26;19996;-71
2024/04/10 03:20:45;;;;;;;240.63;26.98;;;;;;;11.83;74.77;100096.59;5341748;26;20470;-72
2024/04/10 03:23:12;;;;;;;136.90;24.52;;;;;;;11.82;74.86;100086.16;5308445;26;20004;-70
2024/04/10 03:25:38;;;;;;;246.88;29.50;;;;;;;12.11;74.94;100116.34;5307937;26;20003;-72
2024/04/10 03:28:05;;;;;;;323.55;34.15;;;;;;;12.24;74.98;100136.25;5370817;26;20014;-70
2024/04/10 03:30:35;;;;;;;449.58;37.35;;;;;;;12.34;74.44;100137.84;5334027;26;20028;-72
2024/04/10 03:33:01;;;;;;;325.55;31.98;;;;;;;12.13;74.88;100085.91;5397374;26;20026;-68
2024/04/10 03:35:29;;;;;;;231.88;27.33;;;;;;;12.53;74.89;100139.41;5332892;26;20003;-79
2024/04/10 03:37:55;;;;;;;297.65;29.10;;;;;;;12.52;75.00;100135.91;5335491;26;20105;-70
2024/04/10 03:40:22;;;;;;;240.68;28.00;;;;;;;12.23;74.78;100087.56;5393700;26;20076;-69
2024/04/10 03:42:53;;;;;;;224.57;26.55;;;;;;;12.61;74.43;100154.09;5342997;26;20043;-70
2024/04/10 03:45:20;;;;;;;229.02;25.23;;;;;;;12.68;75.14;100154.88;5365948;26;20027;-71
2024/04/10 03:47:48;;;;;;;148.55;23.58;;;;;;;12.63;74.83;100144.50;5370652;26;20497;-71
2024/04/10 03:50:14;;;;;;;231.93;25.17;;;;;;;12.64;74.82;100146.22;5364103;26;20022;-71
2024/04/10 03:52:41;;;;;;;114.13;21.73;;;;;;;12.71;74.58;100151.34;5340840;26;20480;-72
2024/04/10 03:55:07;;;;;;;75.00;21.77;;;;;;;12.42;74.92;100105.59;5395961;26;20008;-71
2024/04/10 03:57:34;;;;;;;103.05;21.27;;;;;;;12.73;74.90;100142.66;5360379;26;20011;-71
2024/04/10 04:00:00;;;;;;;77.93;21.98;;;;;;;12.76;74.75;100133.91;5393365;26;20098;-71
2024/04/10 04:02:26;;;;;;;316.42;29.85;;;;;;;12.86;74.41;100151.19;5366185;26;20014;-70
2024/04/10 04:04:56;;;;;;;110.10;21.70;;;;;;;12.78;74.74;100133.00;5308314;26;20007;-70
2024/04/10 04:07:22;;;;;;;145.43;22.70;;;;;;;13.05;74.30;100164.84;5364528;26;20003;-69
2024/04/10 04:09:48;;;;;;;96.95;20.23;;;;;;;13.12;74.18;100160.44;5361772;26;20015;-71
2024/04/10 04:12:15;;;;;;;87.10;19.80;;;;;;;13.18;74.22;100162.94;5341163;26;20290;-72
2024/04/10 04:14:41;;;;;;;84.25;20.40;;;;;;;12.87;73.70;100113.75;5366362;26;20003;-71
2024/04/10 04:17:08;;;;;;;72.18;17.55;;;;;;;13.15;73.87;100157.75;5371373;26;20070;-71
2024/04/10 04:19:34;;;;;;;76.43;16.25;;;;;;;13.12;73.06;100152.59;5363124;26;20555;-72
2024/04/10 04:22:01;;;;;;;44.60;16.90;;;;;;;13.17;73.54;100139.47;5278670;26;20037;-70
2024/04/10 04:24:27;;;;;;;67.75;15.10;;;;;;;13.34;73.35;100154.91;5338099;26;20008;-70
2024/04/10 04:26:53;;;;;;;34.00;12.13;;;;;;;13.41;73.09;100167.00;5397394;26;20026;-70
2024/04/10 04:29:19;;;;;;;36.00;13.55;;;;;;;13.19;73.35;100117.63;5327897;26;20650;-70
2024/04/10 04:31:46;;;;;;;85.72;14.98;;;;;;;13.22;72.54;100122.81;5357476;26;20333;-69
2024/04/10 04:34:16;;;;;;;32.15;13.70;;;;;;;13.31;72.71;100119.22;5363909;26;20011;-71
2024/04/10 04:36:43;;;;;;;61.10;13.27;;;;;;;13.73;72.52;100178.75;5369325;26;20008;-71
2024/04/10 04:39:13;;;;;;;34.95;12.38;;;;;;;13.73;72.46;100170.91;5362471;26;20000;-71
2024/04/10 04:41:40;;;;;;;46.78;12.40;;;;;;;13.40;71.81;100126.03;5395753;26;20027;-72
2024/04/10 04:44:08;;;;;;;41.00;13.38;;;;;;;13.84;71.79;100186.41;5398495;26;20003;-71
2024/04/10 04:46:35;;;;;;;45.10;13.25;;;;;;;13.89;72.10;100166.28;5372107;26;20009;-70
2024/04/10 04:49:02;;;;;;;35.72;13.73;;;;;;;13.99;71.81;100156.53;5342596;26;20019;-70
2024/04/10 04:51:28;;;;;;;24.80;13.68;;;;;;;14.00;71.50;100140.78;5360410;26;20022;-70
2024/04/10 04:53:55;;;;;;;25.63;13.05;;;;;;;14.41;71.48;100167.09;5366807;26;20476;-71
2024/04/10 04:56:21;;;;;;;24.58;12.82;;;;;;;14.76;71.09;100180.44;5366519;26;20011;-71
2024/04/10 04:58:47;;;;;;;31.60;12.30;;;;;;;14.91;70.63;100189.72;5397339;26;20003;-71
2024/04/10 05:01:14;;;;;;;27.02;13.32;;;;;;;14.82;69.97;100167.19;5343578;26;20126;-69
2024/04/10 05:06:27;;;;;;;18.88;11.75;;;;;;;15.05;69.61;100174.59;5368952;26;19999;-70
2024/04/10 05:08:53;;;;;;;24.27;10.50;;;;;;;15.23;69.20;100197.81;5315842;26;20088;-71
2024/04/10 05:11:21;;;;;;;22.35;10.65;;;;;;;15.00;68.89;100157.25;5399463;26;20666;-71
2024/04/10 05:13:47;;;;;;;19.00;9.40;;;;;;;15.18;68.42;100177.81;5340253;26;20003;-70
2024/04/10 05:16:13;;;;;;;17.73;9.27;;;;;;;15.10;68.17;100173.63;5373762;26;20084;-70
2024/04/10 05:18:39;;;;;;;18.50;10.43;;;;;;;15.14;67.99;100180.50;5397005;26;20015;-71
2024/04/10 05:21:05;;;;;;;17.25;8.82;;;;;;;15.33;67.79;100196.69;5370055;26;20007;-71
2024/04/10 05:23:31;;;;;;;14.38;9.27;;;;;;;15.40;67.57;100189.56;5373526;26;20015;-71
2024/04/10 05:26:02;;;;;;;16.95;9.93;;;;;;;15.42;67.39;100180.78;5338570;26;20007;-69
2024/04/10 05:28:28;;;;;;;19.02;9.68;;;;;;;15.58;67.20;100180.41;5338764;26;20000;-70
2024/04/10 05:31:04;;;;;;;19.23;9.32;;;;;;;15.59;67.07;100156.75;5369838;26;20019;-69
2024/04/10 05:33:30;;;;;;;15.57;9.45;;;;;;;15.94;66.36;100194.44;5397183;26;20000;-70
2024/04/10 05:36:01;;;;;;;15.73;9.13;;;;;;;16.02;66.34;100183.75;5373203;26;20011;-71
2024/04/10 05:38:29;;;;;;;15.88;9.18;;;;;;;16.23;65.70;100211.19;5398756;26;20004;-70
2024/04/10 05:40:57;;;;;;;15.70;9.50;;;;;;;16.38;66.04;100195.97;5367857;26;20577;-68
2024/04/10 05:43:23;;;;;;;18.27;10.02;;;;;;;16.73;65.34;100204.63;5344479;26;20003;-70
2024/04/10 05:45:56;;;;;;;15.77;9.57;;;;;;;16.62;64.70;100160.25;5369328;26;20391;-70
2024/04/10 05:48:23;;;;;;;15.10;9.98;;;;;;;16.96;63.67;100216.28;5367635;26;20047;-71
2024/04/10 05:50:56;;;;;;;15.63;8.65;;;;;;;16.29;63.92;100168.19;5339235;26;20700;-70
2024/04/10 05:53:22;;;;;;;17.63;10.13;;;;;;;16.29;61.92;100218.06;5337707;26;20010;-70
2024/04/10 05:55:48;;;;;;;19.25;11.05;;;;;;;16.15;64.00;100231.53;5367785;26;20019;-70
2024/04/10 05:58:14;;;;;;;24.77;15.30;;;;;;;16.43;64.06;100243.97;5342853;26;20115;-70
2024/04/10 06:00:41;;;;;;;22.38;13.27;;;;;;;16.64;63.49;100216.25;5308584;26;20011;-70
2024/04/10 06:03:07;;;;;;;23.20;13.38;;;;;;;16.79;62.83;100214.97;5317206;26;20434;-69
2024/04/10 06:05:34;;;;;;;24.17;14.20;;;;;;;16.83;63.07;100242.91;5338537;26;20035;-69
2024/04/10 06:08:00;;;;;;;22.75;13.18;;;;;;;17.01;63.30;100248.56;5343325;26;20015;-72
2024/04/10 06:10:26;;;;;;;20.20;12.48;;;;;;;17.28;62.62;100243.41;5367330;26;20379;-70
2024/04/10 06:12:52;;;;;;;21.33;13.38;;;;;;;17.45;62.14;100233.25;5343301;26;20000;-73
2024/04/10 06:15:21;;;;;;;16.67;10.30;;;;;;;17.44;61.25;100213.09;5344295;26;20019;-72
2024/04/10 06:17:47;;;;;;;15.88;9.43;;;;;;;17.10;59.63;100205.38;5398442;26;20014;-72
2024/04/10 06:20:14;;;;;;;15.48;9.80;;;;;;;17.48;61.42;100249.84;5338893;26;20012;-71
2024/04/10 06:22:40;;;;;;;17.83;10.00;;;;;;;17.06;60.49;100199.34;5366665;26;20112;-70
2024/04/10 06:25:06;;;;;;;16.52;9.93;;;;;;;17.08;60.77;100187.03;5337767;26;20011;-73
2024/04/10 06:27:32;;;;;;;15.00;9.82;;;;;;;17.73;61.08;100228.88;5337493;26;20026;-71
2024/04/10 06:29:58;;;;;;;15.52;10.05;;;;;;;18.26;60.75;100246.50;5395365;26;20423;-71
2024/04/10 06:32:24;;;;;;;15.75;10.07;;;;;;;18.55;59.69;100228.84;5359442;26;20017;-71
2024/04/10 06:34:51;;;;;;;18.20;11.63;;;;;;;18.72;59.57;100208.91;5371861;26;20019;-73
2024/04/10 06:37:17;;;;;;;18.67;11.45;;;;;;;19.29;59.07;100208.63;5343541;26;20466;-71
2024/04/10 06:39:43;;;;;;;17.75;11.23;;;;;;;20.05;58.37;100202.97;5338898;26;20559;-72
2024/04/10 06:42:09;;;;;;;17.40;10.57;;;;;;;20.62;56.63;100193.44;5295630;26;19997;-70
2024/04/10 06:44:35;;;;;;;16.63;10.45;;;;;;;21.08;56.17;100226.69;5307996;26;20093;-71
2024/04/10 06:47:02;;;;;;;14.18;9.63;;;;;;;22.67;56.26;100241.09;5330574;26;20099;-72
2024/04/10 06:49:29;;;;;;;19.65;10.75;;;;;;;23.41;52.49;100226.53;5337042;26;20011;-71
2024/04/10 06:51:55;;;;;;;15.80;11.85;;;;;;;23.94;52.10;100210.28;5301831;26;20019;-71
2024/04/10 06:54:22;;;;;;;13.55;8.98;;;;;;;25.78;50.41;100226.56;5332216;26;20478;-72
2024/04/10 06:56:48;;;;;;;18.23;10.93;;;;;;;27.05;45.83;100236.66;5301898;26;20359;-71
2024/04/10 06:59:19;;;;;;;14.05;10.73;;;;;;;27.04;44.27;100235.78;5331323;26;20428;-72
2024/04/10 07:01:45;;;;;;;14.55;11.50;;;;;;;26.52;42.31;100208.25;5331586;26;20514;-70
2024/04/10 07:04:11;;;;;;;16.10;11.25;;;;;;;27.44;42.05;100212.53;5296961;26;20005;-72
2024/04/10 07:06:37;;;;;;;13.50;10.55;;;;;;;29.80;40.39;100240.69;5331780;26;20488;-70
2024/04/10 07:09:04;;;;;;;14.60;10.15;;;;;;;32.25;37.54;100238.16;5301508;26;20778;-72
2024/04/10 07:11:31;;;;;;;17.88;14.80;;;;;;;33.88;33.60;100229.75;5362760;26;20019;-72
2024/04/10 07:13:57;;;;;;;15.43;12.38;;;;;;;34.92;31.59;100240.78;5362661;26;20481;-72
2024/04/10 07:16:27;;;;;;;14.73;10.88;;;;;;;35.70;31.16;100236.16;5359452;26;20000;-73
2024/04/10 07:18:55;;;;;;;13.70;10.80;;;;;;;36.86;28.98;100223.31;5336689;26;20339;-74
2024/04/10 07:21:21;;;;;;;17.25;13.45;;;;;;;37.86;28.26;100226.31;5330779;26;20028;-75
2024/04/10 07:23:48;;;;;;;17.35;12.18;;;;;;;39.02;26.83;100244.19;5362966;26;20444;-73
2024/04/10 07:26:19;;;;;;;14.55;10.32;;;;;;;38.53;26.09;100251.00;5361094;26;20012;-71
2024/04/10 07:28:55;;;;;;;11.57;9.65;;;;;;;39.27;25.25;100219.38;5336540;26;20425;-73
2024/04/10 07:31:28;;;;;;;13.80;9.52;;;;;;;39.27;25.25;100219.38;5331418;26;20062;-72
2024/04/10 07:33:56;;;;;;;9.88;7.72;;;;;;;41.23;22.41;100244.34;5333402;26;20008;-75
2024/04/10 07:36:23;;;;;;;12.98;9.85;;;;;;;41.51;21.69;100251.53;5301701;26;20014;-72
2024/04/10 07:38:53;;;;;;;14.55;8.63;;;;;;;41.98;21.58;100232.50;5361506;26;20007;-74
2024/04/10 07:41:19;;;;;;;11.65;7.80;;;;;;;42.62;20.40;100249.25;5331693;26;20004;-70
2024/04/10 07:43:46;;;;;;;11.18;7.63;;;;;;;43.39;20.52;100242.22;5364690;26;20010;-71
2024/04/10 07:46:18;;;;;;;12.93;7.93;;;;;;;44.24;19.57;100265.63;5365917;26;20003;-73
2024/04/10 07:48:51;;;;;;;14.32;11.18;;;;;;;44.47;18.04;100234.84;5307377;26;20504;-73
2024/04/10 07:51:17;;;;;;;11.55;8.02;;;;;;;44.94;18.29;100263.66;5343411;26;20000;-72
2024/04/10 07:53:43;;;;;;;13.05;8.82;;;;;;;44.84;17.29;100253.19;5336215;26;20527;-71
2024/04/10 07:56:12;;;;;;;13.73;7.70;;;;;;;45.15;17.34;100273.28;5314841;26;20024;-72
2024/04/10 07:58:39;;;;;;;13.07;8.23;;;;;;;45.26;17.23;100257.94;5348455;26;20025;-71
2024/04/10 08:01:06;;;;;;;13.18;7.60;;;;;;;45.50;16.54;100261.63;5338742;26;20000;-73
2024/04/10 08:03:34;;;;;;;13.60;7.75;;;;;;;45.84;16.37;100252.88;5342641;26;20015;-71
2024/04/10 08:06:05;;;;;;;13.85;8.50;;;;;;;46.37;15.64;100245.59;5365466;26;20015;-72
2024/04/10 08:08:32;;;;;;;11.15;7.07;;;;;;;46.75;15.38;100251.66;5325139;26;20015;-70
2024/04/10 08:11:08;;;;;;;13.52;7.80;;;;;;;46.59;15.35;100236.75;5334125;26;20035;-71
2024/04/10 08:13:34;;;;;;;12.02;6.40;;;;;;;46.17;15.77;100234.97;5364270;26;20019;-73
2024/04/10 08:16:04;;;;;;;10.07;7.15;;;;;;;46.86;15.15;100250.81;5310759;26;22319;-74
2024/04/10 08:18:32;;;;;;;13.00;7.22;;;;;;;47.46;14.39;100250.56;5360069;26;20070;-70
2024/04/10 08:20:59;;;;;;;11.60;7.00;;;;;;;47.88;14.34;100243.84;5397375;26;20051;-70
2024/04/10 08:23:25;;;;;;;13.35;7.22;;;;;;;47.88;13.69;100232.81;5374282;26;20099;-70
2024/04/10 08:25:52;;;;;;;13.27;6.18;;;;;;;45.87;15.15;100231.25;5314748;26;20012;-71
2024/04/10 08:28:20;;;;;;;15.05;6.45;;;;;;;45.95;14.90;100234.72;5368876;26;20373;-70
2024/04/10 08:30:50;;;;;;;15.17;5.60;;;;;;;45.91;14.14;100189.56;5369129;26;20015;-72
2024/04/10 08:33:16;;;;;;;11.32;5.72;;;;;;;45.94;14.97;100213.81;5339218;26;20015;-72
2024/04/10 08:35:42;;;;;;;12.10;6.35;;;;;;;45.44;15.17;100243.34;5341891;26;20039;-73
2024/04/10 08:38:08;;;;;;;9.60;6.43;;;;;;;46.16;14.39;100238.81;5343644;26;20018;-71
2024/04/10 08:40:38;;;;;;;13.07;7.57;;;;;;;44.39;14.86;100230.47;5307680;26;20011;-71
2024/04/10 08:43:06;;;;;;;12.57;6.97;;;;;;;42.70;16.60;100234.53;5339773;26;20627;-71
2024/04/10 08:45:33;;;;;;;13.60;7.00;;;;;;;42.05;17.19;100251.63;5338326;26;20013;-71
2024/04/10 08:48:02;;;;;;;12.95;6.15;;;;;;;43.44;16.25;100251.44;5343124;26;19999;-71
2024/04/10 08:50:32;;;;;;;18.20;6.88;;;;;;;43.90;16.01;100246.72;5368582;26;20141;-71
2024/04/10 08:52:59;;;;;;;12.35;5.70;;;;;;;43.84;16.39;100239.41;5342036;26;20019;-72
2024/04/10 08:55:27;;;;;;;12.30;6.43;;;;;;;44.21;15.12;100234.03;5396463;26;20007;-73
2024/04/10 08:57:53;;;;;;;13.27;6.47;;;;;;;45.23;15.85;100198.03;5342450;26;20011;-74
2024/04/10 09:00:19;;;;;;;12.18;6.45;;;;;;;44.74;14.97;100231.78;5372918;26;20486;-71
2024/04/10 09:02:45;;;;;;;12.38;5.95;;;;;;;43.89;15.46;100195.75;5343756;26;20010;-72
2024/04/10 09:05:11;;;;;;;12.10;6.60;;;;;;;44.79;14.51;100203.66;5374153;26;20003;-75
2024/04/10 09:07:37;;;;;;;13.27;6.47;;;;;;;44.97;15.16;100200.91;5362343;26;20354;-73
2024/04/10 09:10:11;;;;;;;13.50;6.80;;;;;;;45.60;14.32;100230.84;5338766;26;20008;-73
2024/04/10 09:12:37;;;;;;;13.15;5.70;;;;;;;45.26;14.59;100219.50;5338638;26;20000;-71
2024/04/10 09:15:09;;;;;;;9.48;5.57;;;;;;;45.33;14.22;100201.03;5368445;26;20597;-73
2024/04/10 09:17:36;;;;;;;11.55;5.80;;;;;;;43.91;15.15;100193.63;5368762;26;20022;-70
2024/04/10 09:20:17;;;;;;;11.45;5.65;;;;;;;45.27;14.44;100226.69;5338678;26;20024;-71
2024/04/10 09:22:43;;;;;;;13.60;6.35;;;;;;;45.80;14.33;100216.78;5326724;26;20015;-72
2024/04/10 09:25:13;;;;;;;16.00;7.10;;;;;;;45.76;14.10;100221.09;5339089;26;20007;-70
2024/04/10 09:27:39;;;;;;;11.55;6.30;;;;;;;45.57;13.31;100199.16;5342364;26;20088;-73
2024/04/10 09:30:06;;;;;;;11.05;6.07;;;;;;;43.75;15.07;100221.56;5343285;26;20076;-72
2024/04/10 09:32:36;;;;;;;10.65;5.15;;;;;;;41.74;16.34;100229.31;5372271;26;20483;-71
2024/04/10 09:35:05;;;;;;;13.80;5.70;;;;;;;41.63;16.65;100236.25;5339092;26;20176;-71
2024/04/10 09:37:34;;;;;;;10.82;5.57;;;;;;;41.49;16.32;100253.63;5335415;26;20010;-71
2024/04/10 09:40:02;;;;;;;11.15;5.22;;;;;;;40.68;17.20;100241.56;5338732;26;20780;-71
2024/04/10 09:42:33;;;;;;;10.50;5.85;;;;;;;40.60;17.31;100248.00;5316542;26;20057;-72
2024/04/10 09:45:15;;;;;;;10.53;5.30;;;;;;;41.23;17.21;100266.16;5367694;26;20015;-71
2024/04/10 09:47:44;;;;;;;10.82;5.18;;;;;;;42.79;15.56;100240.59;5366698;26;20237;-72
2024/04/10 09:50:17;;;;;;;11.32;5.63;;;;;;;41.77;16.30;100222.63;5395743;26;20092;-72
2024/04/10 09:52:47;;;;;;;9.23;5.05;;;;;;;41.68;17.21;100230.19;5337626;26;20015;-72
2024/04/10 09:55:14;;;;;;;9.73;4.60;;;;;;;40.60;17.36;100256.16;5398988;26;20037;-71
2024/04/10 09:57:43;;;;;;;10.65;5.00;;;;;;;40.37;18.01;100232.75;5342286;26;20163;-72
2024/04/10 10:00:12;;;;;;;12.17;4.63;;;;;;;40.68;17.21;100252.47;5394728;26;20026;-70
2024/04/10 10:02:41;;;;;;;7.50;4.18;;;;;;;40.19;16.66;100205.97;5368035;26;20004;-72
2024/04/10 10:05:22;;;;;;;9.93;4.78;;;;;;;40.19;16.80;100244.97;5368065;26;20011;-70
2024/04/10 10:08:05;;;;;;;10.10;5.13;;;;;;;39.28;16.82;100207.47;5309813;26;20000;-73
2024/04/10 10:10:53;;;;;;;12.68;5.25;;;;;;;38.34;18.16;100209.75;5339312;26;19996;-72
2024/04/10 10:13:34;;;;;;;16.00;5.60;;;;;;;39.50;17.96;100202.06;5312500;26;20380;-72
2024/04/10 10:16:09;;;;;;;14.35;5.40;;;;;;;39.75;18.38;100248.81;5339579;26;20073;-72
2024/04/10 10:18:35;;;;;;;9.15;5.43;;;;;;;38.80;17.92;100224.22;5395037;26;20098;-70
2024/04/10 10:21:10;;;;;;;11.23;5.35;;;;;;;38.55;18.57;100219.06;5313185;26;20011;-70
2024/04/10 10:23:38;;;;;;;11.52;5.63;;;;;;;38.15;20.01;100246.47;5365176;26;20074;-72
2024/04/10 10:26:08;;;;;;;9.70;5.30;;;;;;;37.57;19.28;100218.91;5336642;26;20011;-71
2024/04/10 10:28:36;;;;;;;13.05;5.80;;;;;;;36.90;20.06;100259.91;5371575;26;20019;-73
2024/04/10 10:31:08;;;;;;;10.43;5.28;;;;;;;36.92;20.27;100278.69;5339438;26;20021;-71
2024/04/10 10:33:36;;;;;;;16.70;5.65;;;;;;;36.51;20.84;100270.69;5365170;26;22360;-71
2024/04/10 10:36:03;;;;;;;13.15;5.35;;;;;;;36.57;19.99;100218.53;5368133;26;20012;-72
2024/04/10 10:38:29;;;;;;;7.80;5.13;;;;;;;36.19;20.31;100256.97;5365524;26;20019;-72
2024/04/10 10:40:55;;;;;;;9.50;4.95;;;;;;;35.30;21.22;100249.38;5329737;26;20012;-72
2024/04/10 10:43:23;;;;;;;10.98;5.60;;;;;;;34.73;21.92;100253.53;5342871;26;20003;-71
2024/04/10 10:45:51;;;;;;;14.85;6.00;;;;;;;34.02;22.34;100225.69;5396404;26;20014;-71
2024/04/10 10:48:17;;;;;;;11.35;5.93;;;;;;;32.62;23.15;100249.16;5364999;26;20411;-72
2024/04/10 10:50:43;;;;;;;12.35;5.63;;;;;;;31.60;25.03;100233.31;5366295;26;19999;-73
2024/04/10 10:53:12;;;;;;;12.05;6.65;;;;;;;31.54;24.99;100258.94;5342415;26;20000;-71
2024/04/10 10:55:51;;;;;;;13.73;6.38;;;;;;;30.93;25.78;100233.84;5337892;26;20053;-71
2024/04/10 10:58:17;;;;;;;11.00;6.47;;;;;;;30.25;27.04;100228.09;5364914;26;20006;-73
2024/04/10 11:00:44;;;;;;;13.45;6.32;;;;;;;29.71;26.77;100230.75;5365803;26;20069;-71
2024/04/10 11:03:11;;;;;;;14.38;6.15;;;;;;;29.54;28.28;100248.22;5338938;26;20000;-69
2024/04/10 11:05:38;;;;;;;15.02;6.72;;;;;;;29.29;27.43;100258.22;5397295;26;20014;-71
2024/04/10 11:08:05;;;;;;;12.15;6.13;;;;;;;28.64;29.48;100268.66;5364539;26;20019;-71
2024/04/10 11:10:31;;;;;;;13.13;6.10;;;;;;;28.76;29.89;100275.78;5398747;26;20014;-71
2024/04/10 11:13:06;;;;;;;12.45;5.63;;;;;;;28.24;29.90;100241.34;5336763;26;20018;-72
2024/04/10 11:15:43;;;;;;;13.57;5.28;;;;;;;28.08;30.19;100279.06;5338631;26;20027;-73
2024/04/10 11:18:12;;;;;;;13.15;4.10;;;;;;;28.03;29.91;100273.19;5365905;26;20007;-71
2024/04/10 11:20:40;;;;;;;10.05;4.32;;;;;;;27.74;30.93;100222.78;5313427;26;20024;-72